WetterOnline ( http://www.wetteronline.de )

Wetter aktuell Berus

Aktuelles Wetter: Berus (367m)

6-stündlich | Neueste Meldungen
Ortszeit Temperatur Wetter
Sa, 21.04. 2:00 16.6° C fast wolkenlos
Fr, 20.04. 20:00 23.1° C wolkig
Fr, 20.04. 14:00 24.4° C leicht bewölkt
Fr, 20.04. 8:00 15.3° C wolkig
Fr, 20.04. 2:00 17.6° C bedeckt
Do, 19.04. 20:00 23.7° C wolkenlos
Do, 19.04. 14:00 24.4° C wolkenlos
Do, 19.04. 8:00 14.3° C wolkenlos
Ortszeit Temperatur Wetter
Sa, 21.04. 5:10 14.9° C wolkenlos
Sa, 21.04. 5:00 15.1° C fast wolkenlos
Sa, 21.04. 4:50 15.1° C fast wolkenlos
Sa, 21.04. 4:40 15.0° C leicht bewölkt
Sa, 21.04. 4:30 14.8° C wolkenlos
Sa, 21.04. 4:20 14.8° C wolkenlos
Sa, 21.04. 4:00 15.3° C wolkenlos
Sa, 21.04. 3:30 16.3° C fast wolkenlos
Sa, 21.04. 3:00 16.0° C wolkig
Sa, 21.04. 2:30 17.6° C leicht bewölkt
Sa, 21.04. 2:00 16.6° C fast wolkenlos
Ortszeit Relative Feuchte Sichtweite
Sa, 21.04. 2:00 61% 21 km
Fr, 20.04. 20:00 32% 50 km
Fr, 20.04. 14:00 29% 18 km
Fr, 20.04. 8:00 56% 22 km
Fr, 20.04. 2:00 53% 27 km
Do, 19.04. 20:00 29% 70 km
Do, 19.04. 14:00 30% 40 km
Do, 19.04. 8:00 58% 25 km
Ortszeit Relative Feuchte Sichtweite
Sa, 21.04. 5:10 64% -
Sa, 21.04. 5:00 63% 17 km
Sa, 21.04. 4:50 63% -
Sa, 21.04. 4:40 64% -
Sa, 21.04. 4:30 65% 25 km
Sa, 21.04. 4:20 65% -
Sa, 21.04. 4:00 61% 35 km
Sa, 21.04. 3:30 57% 35 km
Sa, 21.04. 3:00 63% 21 km
Sa, 21.04. 2:30 58% 30 km
Sa, 21.04. 2:00 61% 21 km
Ortszeit Niederschlagsmenge Niederschlagsart
Sa, 21.04. 2:00 0.0 l/m2 in 6 Std. -
Fr, 20.04. 20:00 0.0 l/m2 in 12 Std. -
Fr, 20.04. 14:00 0.0 l/m2 in 6 Std. -
Fr, 20.04. 8:00 0.0 l/m2 in 12 Std. -
Fr, 20.04. 2:00 0.0 l/m2 in 6 Std. -
Do, 19.04. 20:00 0.0 l/m2 in 12 Std. -
Do, 19.04. 14:00 0.0 l/m2 in 6 Std. -
Do, 19.04. 8:00 0.0 l/m2 in 12 Std. -
Ortszeit Niederschlagsmenge Niederschlagsart
Sa, 21.04. 5:10 keine Meldung -
Sa, 21.04. 5:00 0.0 l/m2 in 1 Std. -
Sa, 21.04. 4:50 keine Meldung -
Sa, 21.04. 4:40 keine Meldung -
Sa, 21.04. 4:30 0.0 l/m2 in 1 Std. -
Sa, 21.04. 4:20 keine Meldung -
Sa, 21.04. 4:00 0.0 l/m2 in 1 Std. -
Sa, 21.04. 3:30 0.0 l/m2 in 1 Std. -
Sa, 21.04. 3:00 0.0 l/m2 in 1 Std. -
Sa, 21.04. 2:30 0.0 l/m2 in 1 Std. -
Sa, 21.04. 2:00 0.0 l/m2 in 1 Std. -
Ortszeit Stärke Spitze Richtung
km/h Bft. km/h Grad Sektor
Sa, 21.04. 2:00 9 2 20 10° N
Fr, 20.04. 20:00 11 2 18 290° W
Fr, 20.04. 14:00 7 2 18 60° NO
Fr, 20.04. 8:00 11 2 22 30° NO
Fr, 20.04. 2:00 17 3 19 50° NO
Do, 19.04. 20:00 4 1 22 150° SO
Do, 19.04. 14:00 7 2 22 90° O
Do, 19.04. 8:00 18 3 22 40° NO
Ortszeit Stärke Spitze Richtung
km/h Bft. km/h Grad Sektor
Sa, 21.04. 5:10 11 2 - 40° NO
Sa, 21.04. 5:00 11 2 20 40° NO
Sa, 21.04. 4:50 11 2 - 40° NO
Sa, 21.04. 4:40 11 2 - 30° NO
Sa, 21.04. 4:30 15 3 20 30° NO
Sa, 21.04. 4:20 15 3 - 30° NO
Sa, 21.04. 4:00 13 3 17 30° NO
Sa, 21.04. 3:30 11 2 14 350° N
Sa, 21.04. 3:00 4 1 11 30° NO
Sa, 21.04. 2:30 0 0 11 - -
Sa, 21.04. 2:00 9 2 13 10° N
Ortszeit Untergrenze Bedeckung Gattung
total tief tief mittel hoch
Sa, 21.04. 2:00 10500 m 2/8 0/8 - - -
Fr, 20.04. 20:00 10500 m 7/8 0/8 - - -
Fr, 20.04. 14:00 9000 m 6/8 0/8 - - -
Fr, 20.04. 8:00 3000 m 7/8 1/8 - - -
Fr, 20.04. 2:00 - 8/8 - - - -
Do, 19.04. 20:00 - 0/8 0/8 - - -
Do, 19.04. 14:00 - 0/8 0/8 - - -
Do, 19.04. 8:00 - 0/8 0/8 - - -
Ortszeit Bedeckungsgrad in Achtel und Wolkenuntergrenze
Sa, 21.04. 5:10 keine Wolken
Sa, 21.04. 5:00 1(1800m)
Sa, 21.04. 4:50 1(1800m)
Sa, 21.04. 4:40 2(1800m)
Sa, 21.04. 4:30 9 9 9
Sa, 21.04. 4:20 keine Wolken
Sa, 21.04. 4:00 keine Wolken
Sa, 21.04. 3:30 2(10500m)
Sa, 21.04. 3:00 7(10500m)
Sa, 21.04. 2:30 4(10500m)
Sa, 21.04. 2:00 2(10500m)
Ortszeit Luftdruck NN (hPa) Tendenz (hPa in 3 Std.)
Sa, 21.04. 2:00 1021 - 0,6
Fr, 20.04. 20:00 1020 - 1,0
Fr, 20.04. 14:00 1023 - 0,6
Fr, 20.04. 8:00 1024 + 0,1
Fr, 20.04. 2:00 1024 - 0,8
Do, 19.04. 20:00 1024 - 0,4
Do, 19.04. 14:00 1026 - 0,6
Do, 19.04. 8:00 1028 - 0,2
Ortszeit Luftdruck NN (hPa) Tendenz (hPa in 3 Std.)
Sa, 21.04. 5:10 1020 keine Meldung
Sa, 21.04. 5:00 1020 - 0,6
Sa, 21.04. 4:50 1020 keine Meldung
Sa, 21.04. 4:40 1020 keine Meldung
Sa, 21.04. 4:30 1021 - 0,7
Sa, 21.04. 4:20 1021 keine Meldung
Sa, 21.04. 4:00 1021 - 0,7
Sa, 21.04. 3:30 1021 - 0,6
Sa, 21.04. 3:00 1021 - 0,6
Sa, 21.04. 2:30 1021 - 0,6
Sa, 21.04. 2:00 1021 - 0,6
Ortszeit Schneehöhe (cm)
Sa, 21.04. 2:00 -
Fr, 20.04. 20:00 -
Fr, 20.04. 14:00 0
Fr, 20.04. 8:00 -
Fr, 20.04. 2:00 -
Do, 19.04. 20:00 -
Do, 19.04. 14:00 -
Do, 19.04. 8:00 -
Ortszeit Schneehöhe (cm)
Sa, 21.04. 5:10 -
Sa, 21.04. 5:00 -
Sa, 21.04. 4:50 -
Sa, 21.04. 4:40 -
Sa, 21.04. 4:30 -
Sa, 21.04. 4:20 -
Sa, 21.04. 4:00 -
Sa, 21.04. 3:30 -
Sa, 21.04. 3:00 -
Sa, 21.04. 2:30 -
Sa, 21.04. 2:00 -
Link zu dieser Seite / Seite empfehlen

Das Wetter in ...